Portada
METAR-TAF:

METAR-TAF

Aeropuertos :

Aeropuerto Internacional de Kos-Hipócrates

Cos, Grecia

latitud: 36-47N, longitud: 027-04E, altitud: 129 m

Observación

El informe se hizo hace 44 minutos, a las 01:50 UTC
Viento 9 kt del noroeste
Temperatura 24°C
Humedad 89%
Presión 1005 hPa
Visibilidad 10 km o más
sin nubes por debajo de 1500 m y sin presencia de cumulonimbus.

METAR: LGKO 230150Z 31009KT CAVOK 24/22 Q1005

Hora: 05:34 (02:34 UTC)

Pronóstico

El informe se hizo hace 3 horas y 34 minutos, a las 23:00 UTC
Pronóstico válido del 23 a las 00 UTC al 23 a las 24 UTC
Viento 10 kt del oeste-noroeste
Visibilidad 10 km o más
sin nubes por debajo de 1500 m y sin presencia de cumulonimbus.
Evolucionando progresivamente
del 23 a las 08 UTC al 23 a las 10 UTC
Viento 20 kt del norte-noroeste

TAF: LGKO 222300Z 2300/2324 30010KT CAVOK BECMG 2308/2310 33020KT

Observaciones y pronósticos meteorológicos de más de 4000 aeropuertos (mensajes METAR y TAF).

Los puntos amarillos y rojos representan las estaciones disponibles.

Ponga el ratón en el punto deseado para ver el nombre de la estación.

Haga clic para ver las observaciones y los pronósticos meteorológicos.

Para cambiar el mapa : haga clic en los botones verdes con una cruz de color negro para hacer un zoom, en el botón verde con un guión para alejar o en las flechas verdes para mapas adyacentes.


METAR-TAF: